Time;durP1;ratioP1;P1;durP2;ratioP2;P2;SDS_P1;SDS_P2;PMS_P1;PMS_P2;Temp;Humidity;BMP_temperature;BMP_pressure;BME280_temperature;BME280_humidity;BME280_pressure;Samples;Min_cycle;Max_cycle;Signal;HPM_P1;HPM_P2
2023/08/02 00:00:19;;;;;;;4.00;1.98;;;15.90;99.90;;;;;;5050344;28;20425;-71
2023/08/02 00:02:46;;;;;;;3.78;2.10;;;15.90;99.90;;;;;;5066303;28;20932;-71
2023/08/02 00:05:13;;;;;;;4.10;1.80;;;15.90;99.90;;;;;;5063907;28;20524;-72
2023/08/02 00:07:40;;;;;;;3.53;1.90;;;15.90;99.90;;;;;;5056601;28;20416;-71
2023/08/02 00:10:08;;;;;;;3.80;1.60;;;16.00;99.90;;;;;;5053887;28;20825;-71
2023/08/02 00:12:36;;;;;;;3.50;2.00;;;16.00;99.90;;;;;;5038968;28;20431;-71
2023/08/02 00:15:02;;;;;;;2.50;1.60;;;16.00;99.90;;;;;;5063548;22;20638;-69
2023/08/02 00:17:30;;;;;;;3.00;1.80;;;16.10;99.90;;;;;;5043713;28;20425;-68
2023/08/02 00:19:56;;;;;;;3.65;1.60;;;16.10;99.90;;;;;;5040565;28;20421;-69
2023/08/02 00:22:23;;;;;;;4.88;2.00;;;16.10;99.90;;;;;;5045445;28;20432;-69
2023/08/02 00:24:50;;;;;;;4.35;1.90;;;16.10;99.90;;;;;;5043916;28;20445;-69
2023/08/02 00:27:17;;;;;;;3.17;2.00;;;16.10;99.90;;;;;;5045294;28;20417;-69
2023/08/02 00:29:45;;;;;;;4.38;1.90;;;16.10;99.90;;;;;;5043803;28;20425;-69
2023/08/02 00:32:11;;;;;;;4.57;2.08;;;16.10;99.90;;;;;;5045086;28;20496;-69
2023/08/02 00:34:38;;;;;;;2.80;1.77;;;16.10;99.90;;;;;;5044201;28;20425;-69
2023/08/02 00:37:05;;;;;;;3.08;1.80;;;16.10;99.90;;;;;;5045030;28;20417;-69
2023/08/02 00:39:31;;;;;;;4.15;2.38;;;16.10;99.90;;;;;;5039221;28;20429;-69
2023/08/02 00:41:58;;;;;;;3.53;1.88;;;16.10;99.90;;;;;;5044089;28;20899;-69
2023/08/02 00:44:25;;;;;;;5.25;2.00;;;16.10;99.90;;;;;;5046325;28;20477;-69
2023/08/02 00:46:54;;;;;;;4.03;1.70;;;16.10;99.90;;;;;;5046008;28;20410;-69
2023/08/02 00:49:21;;;;;;;3.00;1.50;;;16.10;99.90;;;;;;5044716;28;20548;-69
2023/08/02 00:51:47;;;;;;;3.97;2.00;;;16.10;99.90;;;;;;5044402;28;20448;-68
2023/08/02 00:54:14;;;;;;;3.83;1.90;;;16.10;99.90;;;;;;5044085;28;20929;-69
2023/08/02 00:56:42;;;;;;;3.40;1.77;;;16.10;99.90;;;;;;5045419;28;20967;-69
2023/08/02 00:59:09;;;;;;;2.42;1.40;;;16.10;99.90;;;;;;5043472;28;20444;-69
2023/08/02 01:01:35;;;;;;;3.10;1.70;;;16.10;99.90;;;;;;5045542;28;20436;-69
2023/08/02 01:04:04;;;;;;;2.60;1.73;;;16.10;99.90;;;;;;5044424;28;20443;-69
2023/08/02 01:06:37;;;;;;;3.92;1.98;;;16.10;99.90;;;;;;5045042;28;20424;-68
2023/08/02 01:09:08;;;;;;;3.70;1.85;;;16.10;99.90;;;;;;5044675;28;20429;-69
2023/08/02 01:11:41;;;;;;;4.67;2.50;;;16.10;99.90;;;;;;5043660;28;20440;-69
2023/08/02 01:14:13;;;;;;;2.70;1.80;;;16.10;99.90;;;;;;5048154;28;20447;-69
2023/08/02 01:16:41;;;;;;;2.70;1.40;;;16.10;99.90;;;;;;5044919;28;20429;-70
2023/08/02 01:19:12;;;;;;;3.45;1.90;;;16.10;99.90;;;;;;5045300;28;20421;-69
2023/08/02 01:21:40;;;;;;;3.08;1.60;;;16.10;99.90;;;;;;5043056;28;20425;-69
2023/08/02 01:24:08;;;;;;;3.10;1.50;;;16.10;99.90;;;;;;5044188;28;20429;-69
2023/08/02 01:26:37;;;;;;;4.20;1.77;;;16.20;99.90;;;;;;5045131;28;20512;-69
2023/08/02 01:29:08;;;;;;;3.70;1.58;;;16.20;99.90;;;;;;5043940;28;20421;-69
2023/08/02 01:31:37;;;;;;;2.25;1.52;;;16.20;99.90;;;;;;5044372;28;20433;-68
2023/08/02 01:34:05;;;;;;;3.25;1.80;;;16.20;99.90;;;;;;5044694;28;20436;-68
2023/08/02 01:36:32;;;;;;;4.00;2.00;;;16.20;99.90;;;;;;5040355;28;20446;-69
2023/08/02 01:39:00;;;;;;;2.57;1.50;;;16.30;99.90;;;;;;5046936;28;20494;-69
2023/08/02 01:41:27;;;;;;;3.15;1.60;;;16.30;99.90;;;;;;5043380;28;20939;-69
2023/08/02 01:43:53;;;;;;;2.50;1.80;;;16.30;99.90;;;;;;5044784;28;20420;-69
2023/08/02 01:46:20;;;;;;;2.93;1.67;;;16.30;99.90;;;;;;5044431;28;20845;-69
2023/08/02 01:48:47;;;;;;;3.22;1.60;;;16.30;99.90;;;;;;5044840;28;20424;-69
2023/08/02 01:51:13;;;;;;;3.10;1.70;;;16.20;99.90;;;;;;5051119;28;20432;-69
2023/08/02 01:53:40;;;;;;;2.35;1.67;;;16.20;99.90;;;;;;5043686;28;20413;-69
2023/08/02 01:56:08;;;;;;;3.10;1.60;;;16.30;99.90;;;;;;5043068;28;20400;-68
2023/08/02 01:58:35;;;;;;;2.60;1.77;;;16.30;99.90;;;;;;5043642;28;20504;-69
2023/08/02 02:01:02;;;;;;;2.22;1.40;;;16.30;99.90;;;;;;5043980;28;20464;-68
2023/08/02 02:03:28;;;;;;;2.50;1.50;;;16.30;99.90;;;;;;5044889;28;20432;-69
2023/08/02 02:05:56;;;;;;;2.90;1.70;;;16.30;99.90;;;;;;5040654;28;20437;-68
2023/08/02 02:08:23;;;;;;;2.92;1.60;;;16.30;99.90;;;;;;5043566;28;20417;-69
2023/08/02 02:10:50;;;;;;;3.70;1.50;;;16.30;99.90;;;;;;5042827;28;21033;-69
2023/08/02 02:13:19;;;;;;;3.53;2.07;;;16.30;99.90;;;;;;5044104;28;20974;-69
2023/08/02 02:15:46;;;;;;;3.35;1.60;;;16.30;99.90;;;;;;5041511;28;20939;-69
2023/08/02 02:18:13;;;;;;;3.30;2.00;;;16.40;99.90;;;;;;5043984;28;20466;-69
2023/08/02 02:20:39;;;;;;;3.90;1.70;;;16.30;99.90;;;;;;5044096;28;20425;-69
2023/08/02 02:23:06;;;;;;;4.35;1.85;;;16.40;99.90;;;;;;5043974;28;20531;-69
2023/08/02 02:25:33;;;;;;;4.30;2.38;;;16.30;99.90;;;;;;5047376;28;20433;-69
2023/08/02 02:28:00;;;;;;;3.60;2.22;;;16.30;99.90;;;;;;5043419;28;20421;-69
2023/08/02 02:30:28;;;;;;;3.55;2.17;;;16.20;99.90;;;;;;5043518;28;20429;-69
2023/08/02 02:32:55;;;;;;;3.25;1.92;;;16.20;99.90;;;;;;5044441;28;20890;-69
2023/08/02 02:35:22;;;;;;;2.78;1.80;;;16.20;99.90;;;;;;5044097;28;20523;-69
2023/08/02 02:37:49;;;;;;;3.17;2.10;;;16.20;99.90;;;;;;5043917;28;20425;-69
2023/08/02 02:40:15;;;;;;;3.80;2.10;;;16.20;99.90;;;;;;5042823;28;20559;-69
2023/08/02 02:42:42;;;;;;;2.85;1.60;;;16.20;99.90;;;;;;5042452;28;20428;-69
2023/08/02 02:45:10;;;;;;;2.83;1.40;;;16.20;99.90;;;;;;5041749;28;20516;-69
2023/08/02 02:47:38;;;;;;;2.40;1.60;;;16.20;99.90;;;;;;5043828;28;20424;-69
2023/08/02 02:50:05;;;;;;;3.90;1.45;;;16.20;99.90;;;;;;5043492;28;20425;-70
2023/08/02 02:52:32;;;;;;;4.00;1.73;;;16.10;99.90;;;;;;5043667;28;20500;-69
2023/08/02 02:54:59;;;;;;;3.13;1.80;;;16.10;99.90;;;;;;5036273;28;20428;-69
2023/08/02 02:57:26;;;;;;;3.15;1.70;;;16.10;99.90;;;;;;5044203;28;20440;-69
2023/08/02 02:59:52;;;;;;;2.53;1.60;;;16.10;99.90;;;;;;5043164;28;20444;-69
2023/08/02 03:02:19;;;;;;;2.65;1.55;;;16.10;99.90;;;;;;5044164;28;20443;-69
2023/08/02 03:04:47;;;;;;;2.30;1.85;;;16.00;99.90;;;;;;5041434;28;20429;-68
2023/08/02 03:07:14;;;;;;;2.60;1.90;;;15.90;99.90;;;;;;5038172;28;20500;-69
2023/08/02 03:09:41;;;;;;;2.17;1.58;;;15.90;99.90;;;;;;5041533;28;20440;-69
2023/08/02 03:12:08;;;;;;;2.40;1.60;;;15.90;99.90;;;;;;5043266;28;20541;-70
2023/08/02 03:14:35;;;;;;;2.63;1.80;;;15.80;99.90;;;;;;5044933;28;20861;-69
2023/08/02 03:17:02;;;;;;;3.60;2.00;;;15.80;99.90;;;;;;5043467;28;20413;-69
2023/08/02 03:19:29;;;;;;;2.47;1.70;;;15.80;99.90;;;;;;5043340;28;20409;-69
2023/08/02 03:21:57;;;;;;;3.10;1.95;;;15.80;99.90;;;;;;5043557;28;20435;-69
2023/08/02 03:24:23;;;;;;;3.03;1.97;;;15.70;99.90;;;;;;5042750;28;20439;-69
2023/08/02 03:26:50;;;;;;;4.90;2.17;;;15.70;99.90;;;;;;5044539;28;20409;-69
2023/08/02 03:29:17;;;;;;;3.42;2.20;;;15.70;99.90;;;;;;5047504;28;20424;-69
2023/08/02 03:31:44;;;;;;;3.30;2.00;;;15.70;99.90;;;;;;5047022;28;20795;-69
2023/08/02 03:34:10;;;;;;;2.47;1.80;;;15.70;99.90;;;;;;5046452;28;20494;-69
2023/08/02 03:36:37;;;;;;;3.03;2.00;;;15.70;99.90;;;;;;5046936;28;20587;-69
2023/08/02 03:39:05;;;;;;;2.60;2.10;;;15.70;99.90;;;;;;5046674;28;20702;-70
2023/08/02 03:41:32;;;;;;;3.78;2.17;;;15.70;99.90;;;;;;5053547;28;20434;-69
2023/08/02 03:43:59;;;;;;;3.08;2.10;;;15.70;99.90;;;;;;5045237;28;20429;-69
2023/08/02 03:46:26;;;;;;;4.50;2.33;;;15.60;99.90;;;;;;5046418;28;20803;-69
2023/08/02 03:48:53;;;;;;;3.13;2.20;;;15.60;99.90;;;;;;5046503;28;20425;-69
2023/08/02 03:51:19;;;;;;;3.50;2.30;;;15.60;99.90;;;;;;5046382;28;20459;-69
2023/08/02 03:53:47;;;;;;;3.50;1.92;;;15.60;99.90;;;;;;5047901;28;20433;-69
2023/08/02 03:56:15;;;;;;;2.92;2.10;;;15.60;99.90;;;;;;5053321;28;20413;-69
2023/08/02 03:58:41;;;;;;;4.60;2.30;;;15.60;99.90;;;;;;5045033;28;20433;-69
2023/08/02 04:01:08;;;;;;;2.60;2.00;;;15.60;99.90;;;;;;5045888;28;20409;-69
2023/08/02 04:03:35;;;;;;;3.20;2.50;;;15.60;99.90;;;;;;5044906;28;20441;-69
2023/08/02 04:06:01;;;;;;;3.40;2.30;;;15.60;99.90;;;;;;5046999;28;20421;-69
2023/08/02 04:08:28;;;;;;;2.80;2.20;;;15.70;99.90;;;;;;5045841;28;20534;-69
2023/08/02 04:10:55;;;;;;;4.13;2.40;;;15.70;99.90;;;;;;5042052;28;20432;-69
2023/08/02 04:13:23;;;;;;;3.20;2.00;;;15.70;99.90;;;;;;5043913;28;20429;-70
2023/08/02 04:15:50;;;;;;;4.87;2.40;;;15.70;99.90;;;;;;5045330;28;20417;-69
2023/08/02 04:18:16;;;;;;;3.60;2.40;;;15.70;99.90;;;;;;5043988;28;20448;-69
2023/08/02 04:20:43;;;;;;;3.60;2.20;;;15.70;99.90;;;;;;5044454;28;20429;-69
2023/08/02 04:23:10;;;;;;;4.00;2.70;;;15.70;99.90;;;;;;5044073;28;20462;-69
2023/08/02 04:25:36;;;;;;;3.25;2.35;;;15.70;99.90;;;;;;5043756;28;20428;-69
2023/08/02 04:28:03;;;;;;;3.80;2.20;;;15.60;99.90;;;;;;5045513;28;20420;-68
2023/08/02 04:30:32;;;;;;;3.50;2.80;;;15.70;99.90;;;;;;5046578;28;20416;-69
2023/08/02 04:32:59;;;;;;;4.53;2.50;;;15.70;99.90;;;;;;5044273;28;20418;-69
2023/08/02 04:35:26;;;;;;;3.13;2.50;;;15.70;99.90;;;;;;5044188;28;20792;-69
2023/08/02 04:37:53;;;;;;;6.32;2.80;;;15.70;99.90;;;;;;5044058;28;20444;-69
2023/08/02 04:40:19;;;;;;;4.37;2.60;;;15.70;99.90;;;;;;5040403;28;20437;-73
2023/08/02 04:42:48;;;;;;;4.05;2.88;;;15.70;99.90;;;;;;5038360;28;20420;-70
2023/08/02 04:45:15;;;;;;;4.03;3.00;;;15.70;99.90;;;;;;5045758;28;20807;-71
2023/08/02 04:47:43;;;;;;;5.50;3.40;;;15.70;99.90;;;;;;5049002;28;20435;-71
2023/08/02 04:50:10;;;;;;;4.63;3.45;;;15.70;99.90;;;;;;5032091;28;20452;-71
2023/08/02 04:52:36;;;;;;;5.35;3.60;;;15.60;99.90;;;;;;5040139;28;20444;-70
2023/08/02 04:55:06;;;;;;;5.68;3.70;;;15.60;99.90;;;;;;5042832;28;20445;-69
2023/08/02 04:57:33;;;;;;;5.30;3.03;;;15.60;99.90;;;;;;5043671;28;20424;-71
2023/08/02 04:59:59;;;;;;;3.65;2.90;;;15.60;99.90;;;;;;5039453;28;20497;-71
2023/08/02 05:02:33;;;;;;;4.10;3.20;;;15.50;99.90;;;;;;5043938;28;20437;-70
2023/08/02 05:05:01;;;;;;;4.53;3.55;;;15.50;99.90;;;;;;5046467;28;20425;-70
2023/08/02 05:07:28;;;;;;;5.40;3.60;;;15.50;99.90;;;;;;5045015;28;20436;-69
2023/08/02 05:09:55;;;;;;;4.20;3.20;;;15.50;99.90;;;;;;5043097;28;20464;-70
2023/08/02 05:12:22;;;;;;;5.68;3.90;;;15.50;99.90;;;;;;5044288;28;20440;-70
2023/08/02 05:14:48;;;;;;;4.95;3.70;;;15.50;99.90;;;;;;5044028;28;20880;-70
2023/08/02 05:17:15;;;;;;;5.07;3.60;;;15.50;99.90;;;;;;5050707;28;20438;-70
2023/08/02 05:19:42;;;;;;;4.80;3.60;;;15.60;99.90;;;;;;5045143;28;20524;-70
2023/08/02 05:22:10;;;;;;;5.28;3.60;;;15.60;99.90;;;;;;5044350;28;20412;-70
2023/08/02 05:24:36;;;;;;;6.50;3.50;;;15.60;99.90;;;;;;5042045;28;20512;-70
2023/08/02 05:27:04;;;;;;;5.70;3.40;;;15.70;99.90;;;;;;5043334;28;20437;-70
2023/08/02 05:29:30;;;;;;;4.53;3.30;;;15.70;99.90;;;;;;5042175;28;20435;-70
2023/08/02 05:31:57;;;;;;;6.00;3.60;;;15.80;99.90;;;;;;5042338;28;20456;-70
2023/08/02 05:34:24;;;;;;;3.83;3.40;;;15.80;99.90;;;;;;5043067;28;20436;-71
2023/08/02 05:36:50;;;;;;;4.55;3.10;;;15.80;99.90;;;;;;5044525;28;20432;-70
2023/08/02 05:39:19;;;;;;;4.70;3.72;;;15.80;99.90;;;;;;5043268;28;20437;-70
2023/08/02 05:41:46;;;;;;;6.18;3.70;;;15.80;99.90;;;;;;5043313;28;20413;-70
2023/08/02 05:44:12;;;;;;;5.05;3.83;;;15.90;99.90;;;;;;5042437;28;20587;-70
2023/08/02 05:46:39;;;;;;;3.90;3.50;;;16.00;99.90;;;;;;5042036;28;21256;-70
2023/08/02 05:49:06;;;;;;;4.72;3.35;;;16.00;99.90;;;;;;5042186;28;20567;-70
2023/08/02 05:51:32;;;;;;;5.47;4.30;;;16.00;99.90;;;;;;5042788;28;20942;-69
2023/08/02 05:53:59;;;;;;;4.20;3.65;;;16.00;99.90;;;;;;5040759;28;20452;-70
2023/08/02 05:56:27;;;;;;;4.88;3.80;;;16.00;99.90;;;;;;5043416;28;20499;-71
2023/08/02 05:58:54;;;;;;;4.33;3.93;;;16.00;99.90;;;;;;5043280;28;20412;-70
2023/08/02 06:01:21;;;;;;;4.60;3.70;;;16.00;99.90;;;;;;5041238;28;20401;-69
2023/08/02 06:03:48;;;;;;;6.32;3.90;;;16.00;99.90;;;;;;5041431;28;20903;-70
2023/08/02 06:06:14;;;;;;;6.30;3.88;;;16.00;99.90;;;;;;5043186;28;20470;-69
2023/08/02 06:08:43;;;;;;;5.65;4.20;;;16.00;99.90;;;;;;5042464;28;20864;-70
2023/08/02 06:11:10;;;;;;;4.53;4.13;;;15.90;99.90;;;;;;5042403;28;20425;-70
2023/08/02 06:13:39;;;;;;;6.00;4.72;;;15.90;99.90;;;;;;5065314;22;20404;-73
2023/08/02 06:16:05;;;;;;;5.38;4.63;;;15.90;99.90;;;;;;5023377;28;20438;-72
2023/08/02 06:18:32;;;;;;;6.85;5.72;;;15.90;99.90;;;;;;5028673;28;20426;-71
2023/08/02 06:20:59;;;;;;;5.93;4.60;;;15.90;99.90;;;;;;5027977;28;20421;-71
2023/08/02 06:23:25;;;;;;;4.97;4.47;;;15.90;99.90;;;;;;5028537;28;20410;-71
2023/08/02 06:25:53;;;;;;;8.00;4.85;;;15.90;99.90;;;;;;5007793;28;20443;-72
2023/08/02 06:28:19;;;;;;;4.90;4.40;;;15.90;99.90;;;;;;5008417;28;20412;-72
2023/08/02 06:30:47;;;;;;;5.47;4.60;;;15.90;99.90;;;;;;5007777;28;20416;-71
2023/08/02 06:33:14;;;;;;;5.30;4.65;;;15.90;99.90;;;;;;5008343;28;20440;-71
2023/08/02 06:35:41;;;;;;;6.07;5.15;;;15.90;99.90;;;;;;5001326;28;20443;-71
2023/08/02 06:38:07;;;;;;;5.25;4.40;;;15.80;99.90;;;;;;5007848;28;20444;-73
2023/08/02 06:40:34;;;;;;;7.72;5.72;;;15.80;99.90;;;;;;5006862;28;20808;-71
2023/08/02 06:43:01;;;;;;;6.72;5.10;;;15.80;99.90;;;;;;5008140;28;20415;-70
2023/08/02 06:45:27;;;;;;;6.05;5.10;;;15.80;99.90;;;;;;5010228;28;20917;-72
2023/08/02 06:47:55;;;;;;;6.07;4.90;;;15.80;99.90;;;;;;5008518;28;20433;-71
2023/08/02 06:50:22;;;;;;;5.72;5.13;;;15.80;99.90;;;;;;5007901;28;20440;-71
2023/08/02 06:52:49;;;;;;;6.78;5.32;;;15.70;99.90;;;;;;5007871;28;20444;-71
2023/08/02 06:55:16;;;;;;;5.40;4.90;;;15.80;99.90;;;;;;5006924;28;20439;-71
2023/08/02 06:57:43;;;;;;;5.68;4.90;;;15.70;99.90;;;;;;5007816;28;20499;-72
2023/08/02 07:00:11;;;;;;;5.43;4.50;;;15.80;99.90;;;;;;5007504;28;20432;-71
2023/08/02 07:02:38;;;;;;;6.20;4.28;;;15.80;99.90;;;;;;5009717;28;20575;-73
2023/08/02 07:05:07;;;;;;;5.07;4.50;;;15.90;99.90;;;;;;5009712;28;20437;-72
2023/08/02 07:07:34;;;;;;;5.65;4.45;;;15.90;99.90;;;;;;5011076;28;20424;-71
2023/08/02 07:10:01;;;;;;;4.57;4.13;;;15.90;99.90;;;;;;5015714;28;20661;-72
2023/08/02 07:12:28;;;;;;;5.10;4.40;;;15.90;99.90;;;;;;5013469;28;20732;-71
2023/08/02 07:14:54;;;;;;;5.97;4.40;;;15.90;99.90;;;;;;5010590;28;20443;-72
2023/08/02 07:17:21;;;;;;;4.50;4.10;;;16.00;99.90;;;;;;5011398;28;20476;-72
2023/08/02 07:19:49;;;;;;;4.43;3.85;;;16.00;99.90;;;;;;5011072;28;20413;-73
2023/08/02 07:22:18;;;;;;;6.28;4.50;;;16.00;99.90;;;;;;5011432;28;20409;-73
2023/08/02 07:24:44;;;;;;;4.15;3.70;;;16.10;99.90;;;;;;5010424;28;20490;-72
2023/08/02 07:27:11;;;;;;;4.68;4.28;;;16.20;99.90;;;;;;5007115;28;20452;-72
2023/08/02 07:29:38;;;;;;;4.53;4.13;;;16.30;99.90;;;;;;5004425;28;20597;-72
2023/08/02 07:32:05;;;;;;;5.78;4.30;;;16.30;99.90;;;;;;5005377;28;20942;-71
2023/08/02 07:34:34;;;;;;;5.13;4.63;;;16.30;99.90;;;;;;5007032;28;21146;-74
2023/08/02 07:37:00;;;;;;;4.63;4.13;;;16.30;99.90;;;;;;5011152;28;20429;-71
2023/08/02 07:39:29;;;;;;;5.25;4.70;;;16.40;99.90;;;;;;5008168;28;20436;-71
2023/08/02 07:41:55;;;;;;;5.43;4.90;;;16.40;99.90;;;;;;5005563;28;20429;-71
2023/08/02 07:44:22;;;;;;;5.07;3.92;;;16.50;99.90;;;;;;5013372;28;20753;-73
2023/08/02 07:46:50;;;;;;;4.85;4.35;;;16.50;99.90;;;;;;5010929;28;20420;-73
2023/08/02 07:49:16;;;;;;;5.03;4.53;;;16.60;99.90;;;;;;5010963;28;20452;-72
2023/08/02 07:51:43;;;;;;;4.43;4.03;;;16.70;99.90;;;;;;5011399;28;20520;-71
2023/08/02 07:54:10;;;;;;;5.10;4.70;;;16.80;99.90;;;;;;5009609;28;20823;-70
2023/08/02 07:56:38;;;;;;;5.20;4.70;;;16.80;99.90;;;;;;5010014;28;20444;-71
2023/08/02 07:59:05;;;;;;;4.83;4.33;;;16.90;99.90;;;;;;5010596;28;20412;-69
2023/08/02 08:01:32;;;;;;;4.80;4.10;;;17.00;99.90;;;;;;5007261;28;20527;-73
2023/08/02 08:03:58;;;;;;;4.50;4.03;;;17.10;99.90;;;;;;5010374;28;21071;-70
2023/08/02 08:06:27;;;;;;;4.50;4.10;;;17.00;99.90;;;;;;5010819;28;20417;-71
2023/08/02 08:08:53;;;;;;;4.38;3.85;;;17.10;99.90;;;;;;5008811;28;20444;-70
2023/08/02 08:11:20;;;;;;;3.63;3.30;;;17.20;99.90;;;;;;5010354;28;20926;-71
2023/08/02 08:13:51;;;;;;;3.90;3.50;;;17.30;99.90;;;;;;5008725;28;20433;-71
2023/08/02 08:16:17;;;;;;;3.50;3.20;;;17.50;99.90;;;;;;5012206;28;20439;-71
2023/08/02 08:18:44;;;;;;;3.50;3.20;;;17.70;99.90;;;;;;5010045;28;20633;-71
2023/08/02 08:21:11;;;;;;;3.50;3.00;;;17.70;99.90;;;;;;5013385;28;20447;-73
2023/08/02 08:23:38;;;;;;;3.80;3.15;;;17.80;99.90;;;;;;5013037;28;20463;-72
2023/08/02 08:26:04;;;;;;;3.15;2.85;;;17.80;99.90;;;;;;5007637;28;20417;-72
2023/08/02 08:28:31;;;;;;;3.50;2.60;;;17.80;99.90;;;;;;5009553;28;20438;-72
2023/08/02 08:31:04;;;;;;;3.65;2.60;;;17.80;99.90;;;;;;5009792;28;20891;-71
2023/08/02 08:33:30;;;;;;;3.00;2.70;;;17.80;99.90;;;;;;5010217;28;20429;-71
2023/08/02 08:35:57;;;;;;;4.30;2.83;;;17.70;99.90;;;;;;5010093;28;20427;-71
2023/08/02 08:38:24;;;;;;;3.20;2.50;;;17.70;99.90;;;;;;5009374;28;20437;-71
2023/08/02 08:40:51;;;;;;;2.80;2.50;;;17.70;99.90;;;;;;5007901;28;20474;-72
2023/08/02 08:43:18;;;;;;;2.90;2.60;;;17.70;99.90;;;;;;5010367;28;20487;-71
2023/08/02 08:45:45;;;;;;;2.60;2.40;;;17.70;99.90;;;;;;5010649;28;20429;-72
2023/08/02 08:48:13;;;;;;;2.63;2.33;;;17.60;99.90;;;;;;5012296;28;20439;-72
2023/08/02 08:50:43;;;;;;;2.63;2.42;;;17.60;99.90;;;;;;5018801;28;20422;-74
2023/08/02 08:53:17;;;;;;;2.43;2.13;;;17.60;99.90;;;;;;5013275;28;20517;-71
2023/08/02 08:55:49;;;;;;;2.50;2.20;;;17.60;99.90;;;;;;5013669;28;20427;-72
2023/08/02 08:58:16;;;;;;;2.50;2.30;;;17.60;99.90;;;;;;5011485;28;20447;-72
2023/08/02 09:00:44;;;;;;;2.60;2.40;;;17.70;99.90;;;;;;5012056;28;20427;-71
2023/08/02 09:03:13;;;;;;;5.95;3.60;;;17.70;99.90;;;;;;5010743;28;20887;-72
2023/08/02 09:05:41;;;;;;;2.88;2.20;;;17.70;99.90;;;;;;5010166;28;20475;-71
2023/08/02 09:08:08;;;;;;;2.80;2.20;;;17.60;99.90;;;;;;5010269;28;20439;-74
2023/08/02 09:10:35;;;;;;;3.80;2.40;;;17.50;99.90;;;;;;5006520;28;20993;-72
2023/08/02 09:13:03;;;;;;;3.30;2.40;;;17.40;99.90;;;;;;5009238;28;20456;-71
2023/08/02 09:15:29;;;;;;;2.35;2.15;;;17.30;99.90;;;;;;5008423;28;20433;-72
2023/08/02 09:17:56;;;;;;;2.13;1.80;;;17.30;99.90;;;;;;5009483;28;20424;-71
2023/08/02 09:20:26;;;;;;;2.58;1.77;;;17.20;99.90;;;;;;5009041;28;20409;-71
2023/08/02 09:22:53;;;;;;;2.10;1.60;;;17.20;99.90;;;;;;5008242;28;20895;-71
2023/08/02 09:25:22;;;;;;;2.42;1.60;;;17.20;99.90;;;;;;5003081;28;20428;-72
2023/08/02 09:27:49;;;;;;;2.67;1.58;;;17.20;99.90;;;;;;5009110;28;20432;-71
2023/08/02 09:30:27;;;;;;;2.38;1.50;;;17.20;99.90;;;;;;5008841;28;20425;-71
2023/08/02 09:33:02;;;;;;;1.70;1.50;;;17.30;99.90;;;;;;5008232;28;20456;-72
2023/08/02 09:35:33;;;;;;;2.70;1.27;;;17.30;99.90;;;;;;5004203;28;20490;-70
2023/08/02 09:38:00;;;;;;;1.52;1.00;;;17.40;99.90;;;;;;5008601;28;20851;-70
2023/08/02 09:40:35;;;;;;;1.20;1.00;;;17.50;99.90;;;;;;5006188;28;20823;-71
2023/08/02 09:43:03;;;;;;;2.25;1.00;;;17.60;99.90;;;;;;5008359;28;20409;-71
2023/08/02 09:45:33;;;;;;;1.30;1.00;;;17.70;99.90;;;;;;5011113;28;20417;-70
2023/08/02 09:48:00;;;;;;;1.70;0.95;;;17.80;99.90;;;;;;5008173;28;20440;-71
2023/08/02 09:50:27;;;;;;;1.80;1.40;;;17.90;99.90;;;;;;5008753;28;20443;-71
2023/08/02 09:52:56;;;;;;;1.67;1.10;;;18.00;99.90;;;;;;5008774;28;20432;-71
2023/08/02 09:55:23;;;;;;;1.30;0.93;;;18.10;99.90;;;;;;5007877;28;20941;-71
2023/08/02 09:57:50;;;;;;;1.60;0.80;;;18.20;99.90;;;;;;5008077;28;20444;-70
2023/08/02 10:00:18;;;;;;;2.70;1.15;;;18.20;99.90;;;;;;5012079;28;20424;-71
2023/08/02 10:02:47;;;;;;;2.07;1.00;;;18.30;99.90;;;;;;5008960;28;20417;-70
2023/08/02 10:05:14;;;;;;;3.10;1.10;;;18.30;99.90;;;;;;5011737;28;20887;-71
2023/08/02 10:07:45;;;;;;;1.20;0.80;;;18.30;99.90;;;;;;5008952;28;20576;-71
2023/08/02 10:10:18;;;;;;;1.20;0.90;;;18.20;99.90;;;;;;5010943;28;20420;-71
2023/08/02 10:12:52;;;;;;;1.90;0.88;;;18.30;99.90;;;;;;5011314;28;20436;-71
2023/08/02 10:15:19;;;;;;;2.00;0.80;;;18.30;99.90;;;;;;5005036;28;20412;-72
2023/08/02 10:17:48;;;;;;;1.10;0.70;;;18.50;99.90;;;;;;5010208;28;20823;-70
2023/08/02 10:20:15;;;;;;;1.10;0.80;;;18.50;99.90;;;;;;5008608;28;20416;-70
2023/08/02 10:22:43;;;;;;;1.45;0.70;;;18.50;99.90;;;;;;5007892;28;20425;-71
2023/08/02 10:25:13;;;;;;;1.30;0.65;;;18.70;99.90;;;;;;5008724;28;20421;-71
2023/08/02 10:27:42;;;;;;;2.00;0.80;;;18.90;99.90;;;;;;5007738;28;20783;-69
2023/08/02 10:30:10;;;;;;;1.10;0.70;;;19.10;99.90;;;;;;4998609;28;20443;-70
2023/08/02 10:32:37;;;;;;;1.08;0.57;;;19.30;99.90;;;;;;5011190;28;20430;-70
2023/08/02 10:35:05;;;;;;;1.20;0.50;;;19.50;99.90;;;;;;5008241;28;20910;-70
2023/08/02 10:37:53;;;;;;;1.80;0.70;;;19.70;99.90;;;;;;5011275;28;20451;-70
2023/08/02 10:40:21;;;;;;;1.80;0.60;;;19.90;99.90;;;;;;5012825;28;20413;-71
2023/08/02 10:43:05;;;;;;;1.00;0.60;;;20.10;99.90;;;;;;5011849;28;20412;-71
2023/08/02 10:45:32;;;;;;;1.00;0.70;;;20.10;99.90;;;;;;5012667;28;20425;-71
2023/08/02 10:48:27;;;;;;;1.40;0.50;;;20.10;99.90;;;;;;5012371;28;20962;-71
2023/08/02 10:50:54;;;;;;;1.38;0.57;;;20.10;99.90;;;;;;5011281;28;20423;-71
2023/08/02 10:53:20;;;;;;;1.63;0.60;;;20.10;99.90;;;;;;5011068;28;20436;-71
2023/08/02 10:56:03;;;;;;;1.50;0.60;;;20.10;99.90;;;;;;5012078;28;20427;-72
2023/08/02 11:01:24;;;;;;;1.10;0.70;;;20.10;99.90;;;;;;5105668;27;20707;-71
2023/08/02 11:03:53;;;;;;;1.40;0.80;;;20.00;99.90;;;;;;5102612;28;21013;-71
2023/08/02 11:06:28;;;;;;;1.23;0.70;;;19.90;99.90;;;;;;5083398;28;20427;-71
2023/08/02 11:08:55;;;;;;;1.30;0.60;;;19.80;99.90;;;;;;5084925;28;20438;-70
2023/08/02 11:11:30;;;;;;;0.90;0.50;;;19.80;99.90;;;;;;5086464;28;20457;-71
2023/08/02 11:13:57;;;;;;;1.00;0.60;;;20.00;99.90;;;;;;5087399;28;20490;-70
2023/08/02 11:16:25;;;;;;;1.17;0.60;;;20.20;99.90;;;;;;5087068;28;20414;-70
2023/08/02 11:18:53;;;;;;;1.00;0.40;;;20.40;99.90;;;;;;5084531;28;20427;-71
2023/08/02 11:21:20;;;;;;;1.27;0.60;;;20.40;99.90;;;;;;5084641;28;20430;-71
2023/08/02 11:23:49;;;;;;;1.10;0.60;;;20.20;99.90;;;;;;5083791;28;20431;-70
2023/08/02 11:26:17;;;;;;;1.33;0.50;;;20.10;99.90;;;;;;5085366;28;20906;-70
2023/08/02 11:28:45;;;;;;;0.90;0.60;;;20.10;99.90;;;;;;5084068;28;20431;-71
2023/08/02 11:31:12;;;;;;;1.50;0.50;;;20.20;99.90;;;;;;5084725;28;20786;-70
2023/08/02 11:33:41;;;;;;;1.00;0.50;;;20.20;99.90;;;;;;5085460;28;20411;-71
2023/08/02 11:36:08;;;;;;;1.38;0.50;;;20.20;99.90;;;;;;5076817;28;20464;-71
2023/08/02 11:38:36;;;;;;;1.10;0.60;;;20.30;99.90;;;;;;5083111;28;20437;-71
2023/08/02 11:41:03;;;;;;;1.80;0.50;;;20.50;99.90;;;;;;5080203;28;20438;-70
2023/08/02 11:43:36;;;;;;;1.83;0.40;;;20.70;99.90;;;;;;5082922;28;20778;-70
2023/08/02 11:46:13;;;;;;;1.10;0.50;;;21.00;99.90;;;;;;5084872;28;20919;-70
2023/08/02 11:48:41;;;;;;;1.17;0.60;;;21.40;99.90;;;;;;5085041;28;20520;-70
2023/08/02 11:51:09;;;;;;;0.80;0.40;;;21.70;99.90;;;;;;5082696;28;20403;-72
2023/08/02 11:53:36;;;;;;;0.80;0.50;;;22.00;99.90;;;;;;5083231;28;20820;-72
2023/08/02 11:56:03;;;;;;;0.80;0.47;;;22.10;99.90;;;;;;5084559;28;20425;-72
2023/08/02 11:58:30;;;;;;;1.10;0.50;;;22.10;99.90;;;;;;5084488;28;20416;-72
2023/08/02 12:00:56;;;;;;;2.00;0.50;;;22.00;99.90;;;;;;5101130;28;20772;-72
2023/08/02 12:03:23;;;;;;;1.27;0.50;;;22.10;99.90;;;;;;5104126;28;20458;-73
2023/08/02 12:05:59;;;;;;;1.25;0.50;;;22.30;99.90;;;;;;5104549;28;20888;-73
2023/08/02 12:08:26;;;;;;;1.13;0.40;;;22.50;99.90;;;;;;5101275;28;20425;-73
2023/08/02 12:10:53;;;;;;;1.00;0.50;;;22.90;97.90;;;;;;5101163;28;20522;-72
2023/08/02 12:13:20;;;;;;;0.70;0.40;;;23.10;97.90;;;;;;5089207;28;20904;-71
2023/08/02 12:15:59;;;;;;;0.80;0.40;;;23.30;95.90;;;;;;5059707;22;20446;-69
2023/08/02 12:18:26;;;;;;;1.02;0.40;;;23.40;95.80;;;;;;5018077;28;20526;-70
2023/08/02 12:20:54;;;;;;;0.90;0.50;;;23.40;94.60;;;;;;5025318;28;20442;-70
2023/08/02 12:23:31;;;;;;;1.40;0.40;;;23.40;94.40;;;;;;5020578;28;20553;-70
2023/08/02 12:25:58;;;;;;;0.60;0.40;;;23.40;93.30;;;;;;5025037;28;20478;-69
2023/08/02 12:28:25;;;;;;;0.80;0.40;;;23.40;94.10;;;;;;5042593;28;20424;-69
2023/08/02 12:31:01;;;;;;;0.80;0.50;;;23.40;94.10;;;;;;5029542;28;20414;-71
2023/08/02 12:33:28;;;;;;;0.80;0.40;;;23.20;92.90;;;;;;5031689;28;20714;-69
2023/08/02 12:35:56;;;;;;;1.30;0.60;;;23.30;93.00;;;;;;5027177;28;20805;-70
2023/08/02 12:38:28;;;;;;;0.70;0.40;;;23.30;92.80;;;;;;5026234;28;20537;-70
2023/08/02 12:40:55;;;;;;;0.87;0.50;;;23.40;92.50;;;;;;5027349;28;20908;-69
2023/08/02 12:43:23;;;;;;;0.90;0.70;;;23.60;91.80;;;;;;5025035;28;20431;-69
2023/08/02 12:45:49;;;;;;;0.80;0.50;;;23.70;91.60;;;;;;5024581;28;20488;-70
2023/08/02 12:48:16;;;;;;;1.00;0.50;;;23.90;91.20;;;;;;5030189;28;20802;-70
2023/08/02 12:50:43;;;;;;;1.80;0.40;;;24.40;90.10;;;;;;5024597;28;20450;-69
2023/08/02 12:53:11;;;;;;;0.80;0.30;;;24.90;88.20;;;;;;5019508;28;20438;-71